createdAt,value
2019-02-03T00:01:41.893Z,91.50
2019-02-03T00:04:10.429Z,91.30
2019-02-03T00:06:38.990Z,91.30
2019-02-03T00:09:11.202Z,91.30
2019-02-03T00:11:39.747Z,91.20
2019-02-03T00:14:08.547Z,90.90
2019-02-03T00:16:37.642Z,90.90
2019-02-03T00:19:06.048Z,90.90
2019-02-03T00:21:34.503Z,90.80
2019-02-03T00:24:02.998Z,90.90
2019-02-03T00:26:31.551Z,90.70
2019-02-03T00:29:00.052Z,90.40
2019-02-03T00:31:28.508Z,90.40
2019-02-03T00:33:57.823Z,90.60
2019-02-03T00:36:26.392Z,90.70
2019-02-03T00:38:54.931Z,90.70
2019-02-03T00:41:23.418Z,90.70
2019-02-03T00:43:52.253Z,90.40
2019-02-03T00:46:20.696Z,90.50
2019-02-03T00:48:49.715Z,91.00
2019-02-03T00:51:18.146Z,91.60
2019-02-03T00:53:46.754Z,92.20
2019-02-03T00:56:15.334Z,92.40
2019-02-03T00:58:43.848Z,92.20
2019-02-03T01:01:12.356Z,92.20
2019-02-03T01:03:41.109Z,92.40
2019-02-03T01:06:09.933Z,92.40
2019-02-03T01:08:38.460Z,92.40
2019-02-03T01:11:07.025Z,92.40
2019-02-03T01:13:35.503Z,92.00
2019-02-03T01:16:04.051Z,92.20
2019-02-03T01:18:32.504Z,92.50
2019-02-03T01:21:02.831Z,92.60
2019-02-03T01:23:31.372Z,92.80
2019-02-03T01:25:59.864Z,93.10
2019-02-03T01:28:28.370Z,93.10
2019-02-03T01:30:56.805Z,93.30
2019-02-03T01:33:25.300Z,93.30
2019-02-03T01:35:53.829Z,93.50
2019-02-03T01:38:22.305Z,93.60
2019-02-03T01:40:50.820Z,93.50
2019-02-03T01:43:19.314Z,93.60
2019-02-03T01:45:47.749Z,93.70
2019-02-03T01:48:16.639Z,93.50
2019-02-03T01:50:45.225Z,93.20
2019-02-03T01:53:13.652Z,93.00
2019-02-03T01:55:42.177Z,93.10
2019-02-03T01:58:10.659Z,93.30
2019-02-03T02:00:39.830Z,93.30
2019-02-03T02:03:08.349Z,93.50
2019-02-03T02:05:37.000Z,93.30
2019-02-03T02:08:05.523Z,93.30
2019-02-03T02:10:33.993Z,93.30
2019-02-03T02:13:02.449Z,93.40
2019-02-03T02:15:31.388Z,93.40
2019-02-03T02:17:59.990Z,93.20
2019-02-03T02:20:30.160Z,92.60
2019-02-03T02:22:58.644Z,92.20
2019-02-03T02:25:27.208Z,91.50
2019-02-03T02:27:55.693Z,90.90
2019-02-03T02:30:26.198Z,90.70
2019-02-03T02:32:54.859Z,90.50
2019-02-03T02:35:23.811Z,90.20
2019-02-03T02:38:05.252Z,90.20
2019-02-03T02:40:25.074Z,90.20
2019-02-03T02:42:53.802Z,90.20
2019-02-03T02:45:22.512Z,89.80
2019-02-03T02:47:51.098Z,89.20
2019-02-03T02:50:25.059Z,89.40
2019-02-03T02:52:53.686Z,88.80
2019-02-03T02:55:22.228Z,88.60
2019-02-03T02:57:51.217Z,88.90
2019-02-03T03:00:22.813Z,88.80
2019-02-03T03:02:51.326Z,88.70
2019-02-03T03:05:19.906Z,88.10
2019-02-03T03:07:48.580Z,88.00
2019-02-03T03:10:19.030Z,87.50
2019-02-03T03:12:48.020Z,87.90
2019-02-03T03:15:18.755Z,86.90
2019-02-03T03:17:48.174Z,86.90
2019-02-03T03:20:21.441Z,86.70
2019-02-03T03:22:50.221Z,86.40
2019-02-03T03:25:21.141Z,85.60
2019-02-03T03:27:49.774Z,85.20
2019-02-03T03:30:24.188Z,85.60
2019-02-03T03:32:52.678Z,85.90
2019-02-03T03:35:21.362Z,86.20
2019-02-03T03:37:49.863Z,86.50
2019-02-03T03:40:26.409Z,86.10
2019-02-03T03:42:55.537Z,86.50
2019-02-03T03:45:24.200Z,86.20
2019-02-03T03:47:52.809Z,85.90
2019-02-03T03:50:21.307Z,85.70
2019-02-03T03:52:49.876Z,85.80
2019-02-03T03:55:18.447Z,85.50
2019-02-03T03:57:47.040Z,85.20
2019-02-03T04:00:18.717Z,85.50
2019-02-03T04:02:47.853Z,85.50
2019-02-03T04:05:16.492Z,85.50
2019-02-03T04:07:44.998Z,85.30
2019-02-03T04:10:16.254Z,85.50
2019-02-03T04:12:44.713Z,85.60
2019-02-03T04:15:15.777Z,86.20
2019-02-03T04:17:45.847Z,86.00
2019-02-03T04:20:19.928Z,86.50
2019-02-03T04:22:48.485Z,86.20
2019-02-03T04:25:17.309Z,86.20
2019-02-03T04:27:45.753Z,86.80
2019-02-03T04:30:20.467Z,87.30
2019-02-03T04:32:48.928Z,87.40
2019-02-03T04:35:17.476Z,87.90
2019-02-03T04:37:46.047Z,87.90
2019-02-03T04:40:17.505Z,87.50
2019-02-03T04:42:46.375Z,87.10
2019-02-03T04:45:17.502Z,87.00
2019-02-03T04:47:45.992Z,87.40
2019-02-03T04:50:16.779Z,87.80
2019-02-03T04:52:45.236Z,87.80
2019-02-03T04:55:15.831Z,87.50
2019-02-03T04:57:44.347Z,86.80
2019-02-03T05:00:21.734Z,86.20
2019-02-03T05:02:50.388Z,86.30
2019-02-03T05:05:18.964Z,85.50
2019-02-03T05:07:47.460Z,85.00
2019-02-03T05:10:16.656Z,85.40
2019-02-03T05:12:45.520Z,85.10
2019-02-03T05:15:20.128Z,85.20
2019-02-03T05:17:48.692Z,84.80
2019-02-03T05:20:19.545Z,83.90
2019-02-03T05:22:48.168Z,83.80
2019-02-03T05:25:16.668Z,83.80
2019-02-03T05:27:45.161Z,83.40
2019-02-03T05:30:25.198Z,82.70
2019-02-03T05:32:53.682Z,82.20
2019-02-03T05:35:22.277Z,82.10
2019-02-03T05:37:50.692Z,82.10
2019-02-03T05:40:19.572Z,82.10
2019-02-03T05:42:48.050Z,82.10
2019-02-03T05:45:18.423Z,82.30
2019-02-03T05:47:49.987Z,82.60
2019-02-03T05:50:19.257Z,83.10
2019-02-03T05:52:47.698Z,84.00
2019-02-03T05:55:16.956Z,84.50
2019-02-03T05:57:45.430Z,84.30
2019-02-03T06:00:17.026Z,85.00
2019-02-03T06:02:45.795Z,85.30
2019-02-03T06:05:14.257Z,85.60
2019-02-03T06:07:42.790Z,85.80
2019-02-03T06:10:16.745Z,85.80
2019-02-03T06:12:46.334Z,85.20
2019-02-03T06:15:15.771Z,85.00
2019-02-03T06:17:44.225Z,84.90
2019-02-03T06:20:15.137Z,85.30
2019-02-03T06:22:43.975Z,85.20
2019-02-03T06:25:13.659Z,86.80
2019-02-03T06:27:42.327Z,86.20
2019-02-03T06:30:25.988Z,86.20
2019-02-03T06:32:54.433Z,86.30
2019-02-03T06:35:22.961Z,87.10
2019-02-03T06:37:51.431Z,87.70
2019-02-03T06:40:20.235Z,87.90
2019-02-03T06:42:48.649Z,87.70
2019-02-03T06:45:27.882Z,87.60
2019-02-03T06:47:59.260Z,88.00
2019-02-03T06:50:27.214Z,88.40
2019-02-03T06:52:55.990Z,88.20
2019-02-03T06:55:24.407Z,88.20
2019-02-03T06:57:52.816Z,88.30
2019-02-03T07:00:21.265Z,88.90
2019-02-03T07:02:49.652Z,89.40
2019-02-03T07:05:18.117Z,89.80
2019-02-03T07:07:46.801Z,90.00
2019-02-03T07:10:15.239Z,90.20
2019-02-03T07:12:43.824Z,90.20
2019-02-03T07:15:12.355Z,90.50
2019-02-03T07:17:40.800Z,90.20
2019-02-03T07:20:14.552Z,90.30
2019-02-03T07:22:43.003Z,90.30
2019-02-03T07:25:11.595Z,90.40
2019-02-03T07:27:40.096Z,90.80
2019-02-03T07:30:14.488Z,90.70
2019-02-03T07:32:42.900Z,90.80
2019-02-03T07:35:11.758Z,90.90
2019-02-03T07:37:40.297Z,90.90
2019-02-03T07:40:14.297Z,91.20
2019-02-03T07:42:43.240Z,91.70
2019-02-03T07:45:11.821Z,91.60
2019-02-03T07:47:40.249Z,91.70
2019-02-03T07:50:18.195Z,91.90
2019-02-03T07:52:46.708Z,92.20
2019-02-03T07:55:15.506Z,92.20
2019-02-03T07:57:44.145Z,92.40
2019-02-03T08:00:15.441Z,92.40
2019-02-03T08:02:44.008Z,92.20
2019-02-03T08:05:13.042Z,92.20
2019-02-03T08:07:41.530Z,92.30
2019-02-03T08:10:25.575Z,92.40
2019-02-03T08:12:48.112Z,91.90
2019-02-03T08:15:17.814Z,92.10
2019-02-03T08:17:46.287Z,92.30
2019-02-03T08:20:19.688Z,92.40
2019-02-03T08:22:48.212Z,92.60
2019-02-03T08:25:17.956Z,92.80
2019-02-03T08:27:46.907Z,92.90
2019-02-03T08:30:18.320Z,93.00
2019-02-03T08:32:46.766Z,92.80
2019-02-03T08:35:15.166Z,92.80
2019-02-03T08:37:43.840Z,92.70
2019-02-03T08:40:36.915Z,92.40
2019-02-03T08:43:01.783Z,92.60
2019-02-03T08:45:30.191Z,92.60
2019-02-03T08:47:59.053Z,92.30
2019-02-03T08:50:27.479Z,92.00
2019-02-03T08:52:56.257Z,92.10
2019-02-03T08:55:24.728Z,92.30
2019-02-03T08:57:53.145Z,92.60
2019-02-03T09:00:24.369Z,92.70
2019-02-03T09:03:12.183Z,92.80
2019-02-03T09:05:40.685Z,93.00
2019-02-03T09:08:09.107Z,92.80
2019-02-03T09:10:48.161Z,92.40
2019-02-03T09:13:07.830Z,92.30
2019-02-03T09:15:36.734Z,92.40
2019-02-03T09:18:05.681Z,92.30
2019-02-03T09:20:35.329Z,92.50
2019-02-03T09:23:04.413Z,92.70
2019-02-03T09:25:32.841Z,92.70
2019-02-03T09:28:01.336Z,92.40
2019-02-03T09:30:34.796Z,92.60
2019-02-03T09:33:03.376Z,92.70
2019-02-03T09:35:31.845Z,92.40
2019-02-03T09:38:00.267Z,92.30
2019-02-03T09:40:33.531Z,92.40
2019-02-03T09:43:02.009Z,92.60
2019-02-03T09:45:30.853Z,92.60
2019-02-03T09:47:59.818Z,92.30
2019-02-03T09:50:31.929Z,92.40
2019-02-03T09:53:01.769Z,92.30
2019-02-03T09:55:30.920Z,92.20
2019-02-03T09:58:00.793Z,91.90
2019-02-03T10:00:36.928Z,91.80
2019-02-03T10:03:08.306Z,91.80
2019-02-03T10:05:37.407Z,91.40
2019-02-03T10:08:06.501Z,91.30
2019-02-03T10:10:41.997Z,91.70
2019-02-03T10:13:10.878Z,90.80
2019-02-03T10:15:39.340Z,90.80
2019-02-03T10:18:09.483Z,90.80
2019-02-03T10:20:38.287Z,90.50
2019-02-03T10:23:06.757Z,90.70
2019-02-03T10:25:35.321Z,90.50
2019-02-03T10:28:04.491Z,90.80
2019-02-03T10:30:33.019Z,91.00
2019-02-03T10:33:01.502Z,91.20
2019-02-03T10:35:31.925Z,91.50
2019-02-03T10:38:00.410Z,90.90
2019-02-03T10:40:34.187Z,91.00
2019-02-03T10:43:03.609Z,90.70
2019-02-03T10:45:32.301Z,90.50
2019-02-03T10:48:00.725Z,90.30
2019-02-03T10:50:31.746Z,90.30
2019-02-03T10:53:01.099Z,90.40
2019-02-03T10:55:29.501Z,90.70
2019-02-03T10:57:58.059Z,91.40
2019-02-03T11:00:41.591Z,91.20
2019-02-03T11:03:10.112Z,91.20
2019-02-03T11:05:44.550Z,90.10
2019-02-03T11:08:13.780Z,90.00
2019-02-03T11:10:42.589Z,90.30
2019-02-03T11:13:11.095Z,90.30
2019-02-03T11:15:39.609Z,90.30
2019-02-03T11:18:08.162Z,90.00
2019-02-03T11:20:36.948Z,89.70
2019-02-03T11:23:05.712Z,89.30
2019-02-03T11:25:34.497Z,89.40
2019-02-03T11:28:04.105Z,88.60
2019-02-03T11:30:32.864Z,88.60
2019-02-03T11:33:09.499Z,88.80
2019-02-03T11:35:32.517Z,88.10
2019-02-03T11:38:01.077Z,88.50
2019-02-03T11:40:32.252Z,89.90
2019-02-03T11:43:01.109Z,89.80
2019-02-03T11:45:37.930Z,90.20
2019-02-03T11:48:09.790Z,88.90
2019-02-03T11:50:40.637Z,88.40
2019-02-03T11:53:11.645Z,88.50
2019-02-03T11:55:40.077Z,88.40
2019-02-03T11:58:09.160Z,88.50
2019-02-03T12:00:37.816Z,88.00
2019-02-03T12:03:06.964Z,87.10
2019-02-03T12:05:35.449Z,87.10
2019-02-03T12:08:04.480Z,87.40
2019-02-03T12:10:33.254Z,87.60
2019-02-03T12:13:01.699Z,87.50
2019-02-03T12:15:30.777Z,85.20
2019-02-03T12:17:59.225Z,85.80
2019-02-03T12:20:27.781Z,87.70
2019-02-03T12:22:56.354Z,86.80
2019-02-03T12:25:27.308Z,87.30
2019-02-03T12:27:55.908Z,86.50
2019-02-03T12:30:27.398Z,85.40
2019-02-03T12:32:56.336Z,85.10
2019-02-03T12:35:24.960Z,84.10
2019-02-03T12:37:53.546Z,83.80
2019-02-03T12:40:24.993Z,85.00
2019-02-03T12:42:54.043Z,84.50
2019-02-03T12:45:22.604Z,85.20
2019-02-03T12:47:51.648Z,85.20
2019-02-03T12:50:20.141Z,85.60
2019-02-03T12:52:50.092Z,85.00
2019-02-03T12:55:21.431Z,85.00
2019-02-03T12:57:49.967Z,84.50
2019-02-03T13:00:21.811Z,84.60
2019-02-03T13:02:50.257Z,85.40
2019-02-03T13:05:21.197Z,85.90
2019-02-03T13:07:49.786Z,85.20
2019-02-03T13:10:21.902Z,84.60
2019-02-03T13:12:50.377Z,84.70
2019-02-03T13:15:21.877Z,83.90
2019-02-03T13:17:50.556Z,83.80
2019-02-03T13:20:21.904Z,84.40
2019-02-03T13:22:51.416Z,84.10
2019-02-03T13:25:19.921Z,84.50
2019-02-03T13:27:48.818Z,85.80
2019-02-03T13:30:26.833Z,86.10
2019-02-03T13:32:55.238Z,86.00
2019-02-03T13:35:24.092Z,86.80
2019-02-03T13:37:55.459Z,87.30
2019-02-03T13:40:24.330Z,86.50
2019-02-03T13:42:54.311Z,85.30
2019-02-03T13:45:25.023Z,85.70
2019-02-03T13:47:55.030Z,85.90
2019-02-03T13:50:27.814Z,85.80
2019-02-03T13:52:57.042Z,84.30
2019-02-03T13:55:26.515Z,84.10
2019-02-03T13:57:55.369Z,84.40
2019-02-03T14:00:39.380Z,84.30
2019-02-03T14:03:08.089Z,83.00
2019-02-03T14:05:36.581Z,80.60
2019-02-03T14:08:05.853Z,81.30
2019-02-03T14:10:37.536Z,82.90
2019-02-03T14:13:07.938Z,83.60
2019-02-03T14:15:37.339Z,85.10
2019-02-03T14:18:06.422Z,85.20
2019-02-03T14:20:35.111Z,85.10
2019-02-03T14:23:04.297Z,86.30
2019-02-03T14:25:33.144Z,86.60
2019-02-03T14:28:02.073Z,87.10
2019-02-03T14:30:41.012Z,87.20
2019-02-03T14:33:10.477Z,87.20
2019-02-03T14:35:39.056Z,87.30
2019-02-03T14:38:08.199Z,87.50
2019-02-03T14:40:36.714Z,88.30
2019-02-03T14:43:05.690Z,87.90
2019-02-03T14:45:34.736Z,87.80
2019-02-03T14:48:03.398Z,88.40
2019-02-03T14:50:31.973Z,87.60
2019-02-03T14:53:06.388Z,87.10
2019-02-03T14:55:40.345Z,86.30
2019-02-03T14:58:08.932Z,86.00
2019-02-03T15:00:40.090Z,85.60
2019-02-03T15:03:11.032Z,86.30
2019-02-03T15:05:39.742Z,85.20
2019-02-03T15:08:08.493Z,85.50
2019-02-03T15:10:37.087Z,84.80
2019-02-03T15:13:14.164Z,85.40
2019-02-03T15:15:37.198Z,86.00
2019-02-03T15:18:06.626Z,86.50
2019-02-03T15:20:35.138Z,85.20
2019-02-03T15:23:03.912Z,84.20
2019-02-03T15:25:32.420Z,83.90
2019-02-03T15:28:01.386Z,83.50
2019-02-03T15:30:33.658Z,83.70
2019-02-03T15:33:02.548Z,84.80
2019-02-03T15:35:31.183Z,85.20
2019-02-03T15:37:59.824Z,86.10
2019-02-03T15:40:28.237Z,86.50
2019-02-03T15:42:56.761Z,86.90
2019-02-03T15:45:27.423Z,86.60
2019-02-03T15:47:56.095Z,85.90
2019-02-03T15:50:26.524Z,85.70
2019-02-03T15:52:56.029Z,85.40
2019-02-03T15:55:27.335Z,85.50
2019-02-03T15:57:57.933Z,85.10
2019-02-03T16:00:29.394Z,84.90
2019-02-03T16:02:58.032Z,85.10
2019-02-03T16:05:26.621Z,85.60
2019-02-03T16:07:55.636Z,86.10
2019-02-03T16:10:26.511Z,85.70
2019-02-03T16:12:55.620Z,85.00
2019-02-03T16:15:24.499Z,84.10
2019-02-03T16:17:53.010Z,83.30
2019-02-03T16:20:29.316Z,83.80
2019-02-03T16:22:59.302Z,84.10
2019-02-03T16:25:28.545Z,85.20
2019-02-03T16:27:57.041Z,85.60
2019-02-03T16:30:37.810Z,86.10
2019-02-03T16:33:09.282Z,86.20
2019-02-03T16:35:38.154Z,86.50
2019-02-03T16:38:07.609Z,87.00
2019-02-03T16:40:36.253Z,86.30
2019-02-03T16:43:05.940Z,86.50
2019-02-03T16:45:34.885Z,86.20
2019-02-03T16:48:03.763Z,85.90
2019-02-03T16:50:33.131Z,85.00
2019-02-03T16:53:03.561Z,83.70
2019-02-03T16:55:32.354Z,83.20
2019-02-03T16:58:00.870Z,83.50
2019-02-03T17:00:31.423Z,82.30
2019-02-03T17:03:00.568Z,83.60
2019-02-03T17:05:30.780Z,82.70
2019-02-03T17:08:01.250Z,82.60
2019-02-03T17:10:30.163Z,81.80
2019-02-03T17:12:58.777Z,81.70
2019-02-03T17:15:32.893Z,81.00
2019-02-03T17:18:01.367Z,80.90
2019-02-03T17:20:29.865Z,81.50
2019-02-03T17:22:58.562Z,81.40
2019-02-03T17:25:39.563Z,82.20
2019-02-03T17:28:08.124Z,83.10
2019-02-03T17:30:36.624Z,82.60
2019-02-03T17:33:05.666Z,82.70
2019-02-03T17:35:34.467Z,82.60
2019-02-03T17:38:03.374Z,82.80
2019-02-03T17:40:31.920Z,83.60
2019-02-03T17:43:00.588Z,83.50
2019-02-03T17:45:29.291Z,83.10
2019-02-03T17:47:57.987Z,84.00
2019-02-03T17:50:35.528Z,84.00
2019-02-03T17:53:05.569Z,83.80
2019-02-03T17:55:34.248Z,83.10
2019-02-03T17:58:02.968Z,83.00
2019-02-03T18:00:37.910Z,83.60
2019-02-03T18:03:07.498Z,83.90
2019-02-03T18:05:36.362Z,83.70
2019-02-03T18:08:07.147Z,84.00
2019-02-03T18:10:36.023Z,84.20
2019-02-03T18:13:05.916Z,84.60
2019-02-03T18:15:35.099Z,84.60
2019-02-03T18:18:04.736Z,84.60
2019-02-03T18:20:33.373Z,85.20
2019-02-03T18:23:02.125Z,85.40
2019-02-03T18:25:31.708Z,86.00
2019-02-03T18:28:00.645Z,85.10
2019-02-03T18:30:34.416Z,85.60
2019-02-03T18:33:03.284Z,84.70
2019-02-03T18:35:32.025Z,84.20
2019-02-03T18:38:04.524Z,84.00
2019-02-03T18:40:33.037Z,84.20
2019-02-03T18:43:02.046Z,84.80
2019-02-03T18:45:31.496Z,84.50
2019-02-03T18:48:00.117Z,84.20
2019-02-03T18:50:28.765Z,84.40
2019-02-03T18:52:57.398Z,84.60
2019-02-03T18:55:34.740Z,84.90
2019-02-03T18:58:03.405Z,84.40
2019-02-03T19:00:35.208Z,83.90
2019-02-03T19:03:05.277Z,84.60
2019-02-03T19:05:36.324Z,84.20
2019-02-03T19:08:05.548Z,83.80
2019-02-03T19:13:23.956Z,84.20
2019-02-03T19:15:55.597Z,83.80
2019-02-03T19:18:24.738Z,84.10
2019-02-03T19:20:53.671Z,84.00
2019-02-03T19:23:41.866Z,84.30
2019-02-03T19:26:10.913Z,84.80
2019-02-03T19:28:39.645Z,84.20
2019-02-03T19:31:08.478Z,84.30
2019-02-03T19:33:37.677Z,84.10
2019-02-03T19:36:06.734Z,84.80
2019-02-03T19:38:36.190Z,84.20
2019-02-03T19:41:05.508Z,84.40
2019-02-03T19:43:34.757Z,84.00
2019-02-03T19:46:03.779Z,84.30
2019-02-03T19:48:33.370Z,83.60
2019-02-03T19:51:02.621Z,83.80
2019-02-03T19:53:32.054Z,83.40
2019-02-03T19:56:01.198Z,83.60
2019-02-03T19:58:30.694Z,82.90
2019-02-03T20:00:59.771Z,81.70
2019-02-03T20:03:28.919Z,82.60
2019-02-03T20:05:58.938Z,82.40
2019-02-03T20:08:28.197Z,83.00
2019-02-03T20:10:57.104Z,82.80
2019-02-03T20:16:15.351Z,81.90
2019-02-03T20:18:44.633Z,82.80
2019-02-03T20:21:13.957Z,82.60
2019-02-03T20:23:43.732Z,83.60
2019-02-03T20:26:13.114Z,83.70
2019-02-03T20:28:42.106Z,83.80
2019-02-03T20:31:11.822Z,83.60
2019-02-03T20:33:41.210Z,83.30
2019-02-03T20:36:10.348Z,84.00
2019-02-03T20:38:39.592Z,83.40
2019-02-03T20:41:09.119Z,83.10
2019-02-03T20:43:38.347Z,82.80
2019-02-03T20:46:09.488Z,82.70
2019-02-03T20:48:39.524Z,82.80
2019-02-03T20:51:11.327Z,82.20
2019-02-03T20:53:39.273Z,82.00
2019-02-03T20:56:07.859Z,82.00
2019-02-03T20:58:36.661Z,82.10
2019-02-03T21:01:06.709Z,82.10
2019-02-03T21:03:35.859Z,82.10
2019-02-03T21:06:04.758Z,82.90
2019-02-03T21:08:33.849Z,82.60
2019-02-03T21:11:02.977Z,83.10
2019-02-03T21:13:31.999Z,83.40
2019-02-03T21:16:01.237Z,83.00
2019-02-03T21:18:29.853Z,81.80
2019-02-03T21:20:58.499Z,82.80
2019-02-03T21:23:27.269Z,82.80
2019-02-03T21:25:55.865Z,82.80
2019-02-03T21:28:26.035Z,82.60
2019-02-03T21:30:54.846Z,82.00
2019-02-03T21:33:23.262Z,82.00
2019-02-03T21:35:51.662Z,82.80
2019-02-03T21:38:20.497Z,82.50
2019-02-03T21:40:48.893Z,82.10
2019-02-03T21:43:17.878Z,81.70
2019-02-03T21:45:46.273Z,82.20
2019-02-03T21:48:14.759Z,82.20
2019-02-03T21:50:43.173Z,82.60
2019-02-03T21:53:11.579Z,82.20
2019-02-03T21:55:40.012Z,82.30
2019-02-03T21:58:08.927Z,82.10
2019-02-03T22:00:37.332Z,82.20
2019-02-03T22:03:05.812Z,82.10
2019-02-03T22:05:34.316Z,82.40
2019-02-03T22:08:02.717Z,81.80
2019-02-03T22:10:50.472Z,81.50
2019-02-03T22:13:18.887Z,81.70
2019-02-03T22:15:55.546Z,81.90
2019-02-03T22:18:17.486Z,81.50
2019-02-03T22:20:45.915Z,81.50
2019-02-03T22:23:14.831Z,82.00
2019-02-03T22:25:43.221Z,83.00
2019-02-03T22:28:11.652Z,81.20
2019-02-03T22:30:40.157Z,81.30
2019-02-03T22:33:09.325Z,82.10
2019-02-03T22:35:37.714Z,82.10
2019-02-03T22:38:06.500Z,82.50
2019-02-03T22:40:35.056Z,82.60
2019-02-03T22:43:03.864Z,81.90
2019-02-03T22:45:32.360Z,81.90
2019-02-03T22:48:00.855Z,82.00
2019-02-03T22:50:33.525Z,81.50
2019-02-03T22:53:02.308Z,81.90
2019-02-03T22:55:31.084Z,82.00
2019-02-03T22:57:59.490Z,81.50
2019-02-03T23:00:52.353Z,81.10
2019-02-03T23:03:23.693Z,81.20
2019-02-03T23:05:53.247Z,82.20
2019-02-03T23:08:21.720Z,82.20
2019-02-03T23:10:50.193Z,82.10
2019-02-03T23:13:18.661Z,81.60
2019-02-03T23:15:47.841Z,81.50
2019-02-03T23:18:16.232Z,82.40
2019-02-03T23:20:45.002Z,81.90
2019-02-03T23:23:13.391Z,81.80
2019-02-03T23:25:41.832Z,81.80
2019-02-03T23:28:10.267Z,81.40
2019-02-03T23:30:39.144Z,81.60
2019-02-03T23:33:07.556Z,81.70
2019-02-03T23:35:35.989Z,80.30
2019-02-03T23:38:04.450Z,80.10
2019-02-03T23:40:32.887Z,80.70
2019-02-03T23:43:01.285Z,80.80
2019-02-03T23:45:29.799Z,80.90
2019-02-03T23:47:58.274Z,80.40
2019-02-03T23:50:26.706Z,80.10
2019-02-03T23:52:55.361Z,80.30
2019-02-03T23:55:23.785Z,80.10
2019-02-03T23:57:52.180Z,80.20
